createdAt,value
2024-02-02T00:00:42.688Z,4.03
2024-02-02T00:03:12.389Z,3.45
2024-02-02T00:05:41.762Z,4.70
2024-02-02T00:08:09.958Z,4.32
2024-02-02T00:10:38.193Z,4.35
2024-02-02T00:13:06.603Z,4.15
2024-02-02T00:15:34.893Z,4.20
2024-02-02T00:18:03.806Z,4.40
2024-02-02T00:20:33.402Z,4.57
2024-02-02T00:23:01.541Z,4.20
2024-02-02T00:25:29.793Z,4.47
2024-02-02T00:27:57.964Z,4.60
2024-02-02T00:30:26.223Z,3.95
2024-02-02T00:32:54.566Z,4.30
2024-02-02T00:35:22.735Z,4.55
2024-02-02T00:37:52.238Z,5.03
2024-02-02T00:40:21.169Z,4.40
2024-02-02T00:42:49.521Z,4.75
2024-02-02T00:45:18.255Z,4.27
2024-02-02T00:47:46.732Z,5.22
2024-02-02T00:50:14.932Z,4.63
2024-02-02T00:52:43.170Z,4.80
2024-02-02T00:55:14.721Z,4.53
2024-02-02T00:57:42.969Z,5.33
2024-02-02T01:00:12.621Z,5.47
2024-02-02T01:02:41.921Z,5.13
2024-02-02T01:05:19.324Z,5.05
2024-02-02T01:07:48.818Z,5.07
2024-02-02T01:10:19.017Z,5.43
2024-02-02T01:12:48.070Z,6.10
2024-02-02T01:15:17.785Z,5.63
2024-02-02T01:17:46.916Z,5.60
2024-02-02T01:20:15.853Z,5.70
2024-02-02T01:22:44.192Z,5.70
2024-02-02T01:25:13.394Z,5.65
2024-02-02T01:27:43.066Z,5.50
2024-02-02T01:30:17.752Z,5.70
2024-02-02T01:32:45.998Z,6.05
2024-02-02T01:35:14.613Z,5.72
2024-02-02T01:37:42.740Z,5.90
2024-02-02T01:40:14.586Z,5.45
2024-02-02T01:42:44.154Z,5.43
2024-02-02T01:45:14.439Z,5.38
2024-02-02T01:47:42.738Z,5.15
2024-02-02T01:50:15.785Z,5.07
2024-02-02T01:52:43.964Z,5.15
2024-02-02T01:55:16.057Z,5.35
2024-02-02T01:57:45.780Z,5.40
2024-02-02T02:00:18.497Z,5.00
2024-02-02T02:02:46.698Z,4.88
2024-02-02T02:05:15.205Z,5.07
2024-02-02T02:07:45.520Z,5.77
2024-02-02T02:10:15.688Z,5.72
2024-02-02T02:12:45.247Z,5.00
2024-02-02T02:15:13.795Z,5.07
2024-02-02T02:17:41.995Z,5.53
2024-02-02T02:20:13.126Z,5.47
2024-02-02T02:22:43.040Z,4.90
2024-02-02T02:25:12.193Z,4.85
2024-02-02T02:27:40.418Z,5.47
2024-02-02T02:30:10.150Z,4.95
2024-02-02T02:32:38.720Z,4.63
2024-02-02T02:35:09.585Z,5.22
2024-02-02T02:37:37.880Z,5.23
2024-02-02T02:40:11.131Z,4.60
2024-02-02T02:42:41.145Z,5.47
2024-02-02T02:45:14.184Z,4.65
2024-02-02T02:47:43.217Z,4.57
2024-02-02T02:50:12.357Z,5.18
2024-02-02T02:52:40.593Z,5.00
2024-02-02T02:55:10.507Z,5.13
2024-02-02T02:57:38.738Z,4.57
2024-02-02T03:00:10.688Z,4.40
2024-02-02T03:02:39.020Z,4.35
2024-02-02T03:05:10.160Z,4.45
2024-02-02T03:07:39.369Z,4.63
2024-02-02T03:10:08.078Z,4.93
2024-02-02T03:12:38.926Z,4.23
2024-02-02T03:15:08.013Z,5.03
2024-02-02T03:17:36.209Z,4.35
2024-02-02T03:20:06.591Z,4.78
2024-02-02T03:22:35.064Z,4.43
2024-02-02T03:25:03.533Z,4.50
2024-02-02T03:27:32.127Z,4.50
2024-02-02T03:30:01.868Z,3.90
2024-02-02T03:32:30.297Z,4.63
2024-02-02T03:34:58.422Z,4.00
2024-02-02T03:37:26.514Z,4.63
2024-02-02T03:39:54.672Z,4.97
2024-02-02T03:42:22.839Z,4.43
2024-02-02T03:44:51.048Z,4.85
2024-02-02T03:47:22.813Z,4.50
2024-02-02T03:49:51.045Z,4.60
2024-02-02T03:52:24.383Z,4.80
2024-02-02T03:54:52.976Z,5.32
2024-02-02T03:57:21.274Z,4.63
2024-02-02T03:59:49.617Z,5.03
2024-02-02T04:02:18.217Z,4.88
2024-02-02T04:04:47.802Z,4.50
2024-02-02T04:07:15.929Z,4.77
2024-02-02T04:09:44.118Z,5.18
2024-02-02T04:12:12.292Z,4.45
2024-02-02T04:14:41.685Z,5.07
2024-02-02T04:17:09.871Z,4.18
2024-02-02T04:19:38.100Z,4.17
2024-02-02T04:22:07.741Z,4.90
2024-02-02T04:24:35.958Z,4.45
2024-02-02T04:27:04.327Z,4.40
2024-02-02T04:29:32.512Z,4.77
2024-02-02T04:32:00.628Z,3.80
2024-02-02T04:34:29.001Z,4.78
2024-02-02T04:36:57.445Z,4.27
2024-02-02T04:39:27.107Z,4.20
2024-02-02T04:41:55.410Z,4.00
2024-02-02T04:44:23.735Z,4.35
2024-02-02T04:46:51.955Z,4.38
2024-02-02T04:49:20.213Z,4.22
2024-02-02T04:51:48.463Z,4.88
2024-02-02T04:54:16.680Z,5.00
2024-02-02T04:56:46.290Z,4.45
2024-02-02T04:59:14.419Z,4.90
2024-02-02T05:01:42.591Z,4.45
2024-02-02T05:04:10.787Z,5.47
2024-02-02T05:06:39.091Z,4.53
2024-02-02T05:09:08.802Z,3.70
2024-02-02T05:11:37.062Z,4.38
2024-02-02T05:14:06.663Z,4.60
2024-02-02T05:16:34.927Z,4.15
2024-02-02T05:19:03.306Z,4.30
2024-02-02T05:21:31.929Z,4.80
2024-02-02T05:24:09.835Z,4.68
2024-02-02T05:26:48.247Z,4.68
2024-02-02T05:29:17.815Z,5.03
2024-02-02T05:31:46.041Z,4.47
2024-02-02T05:34:14.692Z,4.88
2024-02-02T05:36:42.984Z,4.90
2024-02-02T05:39:11.426Z,4.43
2024-02-02T05:41:39.628Z,4.65
2024-02-02T05:44:07.765Z,4.65
2024-02-02T05:46:38.184Z,4.38
2024-02-02T05:49:06.767Z,5.05
2024-02-02T05:51:35.127Z,5.20
2024-02-02T05:54:03.431Z,4.47
2024-02-02T05:56:31.614Z,4.72
2024-02-02T05:58:59.827Z,5.10
2024-02-02T06:01:28.105Z,4.95
2024-02-02T06:03:57.954Z,4.80
2024-02-02T06:06:26.273Z,4.85
2024-02-02T06:08:56.979Z,4.45
2024-02-02T06:11:27.074Z,4.90
2024-02-02T06:13:57.384Z,4.57
2024-02-02T06:16:27.083Z,4.95
2024-02-02T06:18:56.534Z,4.55
2024-02-02T06:21:26.316Z,5.03
2024-02-02T06:23:54.514Z,4.80
2024-02-02T06:26:22.767Z,4.63
2024-02-02T06:28:51.009Z,4.45
2024-02-02T06:31:21.219Z,4.50
2024-02-02T06:33:49.521Z,4.72
2024-02-02T06:36:17.890Z,4.63
2024-02-02T06:38:47.613Z,4.88
2024-02-02T06:41:15.852Z,4.45
2024-02-02T06:43:44.075Z,4.32
2024-02-02T06:46:12.221Z,4.75
2024-02-02T06:48:40.432Z,4.40
2024-02-02T06:51:10.009Z,4.63
2024-02-02T06:53:38.631Z,4.30
2024-02-02T06:56:11.178Z,4.17
2024-02-02T06:58:41.980Z,5.30
2024-02-02T07:01:10.388Z,4.20
2024-02-02T07:03:39.110Z,4.60
2024-02-02T07:06:08.577Z,4.45
2024-02-02T07:08:36.837Z,4.17
2024-02-02T07:11:07.820Z,3.97
2024-02-02T07:13:46.631Z,4.90
2024-02-02T07:16:16.727Z,4.43
2024-02-02T07:18:45.188Z,4.40
2024-02-02T07:21:14.898Z,4.50
2024-02-02T07:23:47.832Z,5.32
2024-02-02T07:26:27.777Z,4.75
2024-02-02T07:28:57.389Z,4.47
2024-02-02T07:31:37.259Z,4.15
2024-02-02T07:34:18.632Z,4.03
2024-02-02T07:36:46.872Z,4.60
2024-02-02T07:39:23.834Z,5.20
2024-02-02T07:41:52.100Z,4.53
2024-02-02T07:44:21.704Z,4.35
2024-02-02T07:46:49.873Z,5.00
2024-02-02T07:49:18.131Z,4.93
2024-02-02T07:51:46.415Z,4.50
2024-02-02T07:54:14.944Z,4.00
2024-02-02T07:56:45.134Z,4.57
2024-02-02T07:59:13.354Z,4.27
2024-02-02T08:01:42.936Z,5.18
2024-02-02T08:04:11.252Z,4.28
2024-02-02T08:06:39.557Z,5.70
2024-02-02T08:09:10.317Z,4.75
2024-02-02T08:11:38.882Z,4.63
2024-02-02T08:14:07.160Z,4.03
2024-02-02T08:16:35.350Z,4.20
2024-02-02T08:19:04.957Z,3.85
2024-02-02T08:21:33.204Z,4.00
2024-02-02T08:24:02.043Z,3.75
2024-02-02T08:26:30.240Z,4.10
2024-02-02T08:28:58.453Z,4.30
2024-02-02T08:31:26.679Z,4.70
2024-02-02T08:33:54.990Z,4.43
2024-02-02T08:36:24.683Z,4.47
2024-02-02T08:38:53.011Z,4.30
2024-02-02T08:41:21.370Z,5.15
2024-02-02T08:43:50.532Z,4.68
2024-02-02T08:46:22.811Z,4.35
2024-02-02T08:48:52.218Z,4.28
2024-02-02T08:51:48.338Z,4.07
2024-02-02T08:54:38.307Z,4.57
2024-02-02T08:57:32.554Z,4.77
2024-02-02T09:00:06.731Z,3.88
2024-02-02T09:02:53.732Z,4.72
2024-02-02T09:05:24.091Z,4.00
2024-02-02T09:07:54.526Z,4.13
2024-02-02T09:10:58.841Z,5.28
2024-02-02T09:13:28.749Z,5.22
2024-02-02T09:15:56.966Z,4.53
2024-02-02T09:18:34.780Z,5.03
2024-02-02T09:21:03.673Z,5.07
2024-02-02T09:23:35.057Z,5.43
2024-02-02T09:26:12.294Z,4.93
2024-02-02T09:28:44.735Z,4.70
2024-02-02T09:31:13.760Z,5.23
2024-02-02T09:33:49.709Z,5.15
2024-02-02T09:36:18.371Z,5.30
2024-02-02T09:39:01.844Z,5.25
2024-02-02T09:41:45.446Z,4.75
2024-02-02T09:44:26.407Z,5.75
2024-02-02T09:47:01.479Z,5.03
2024-02-02T09:49:50.826Z,4.80
2024-02-02T09:52:28.177Z,5.43
2024-02-02T09:55:05.089Z,4.95
2024-02-02T09:57:39.804Z,5.32
2024-02-02T10:00:12.359Z,4.22
2024-02-02T10:02:56.192Z,4.57
2024-02-02T10:05:30.766Z,5.07
2024-02-02T10:08:10.696Z,4.38
2024-02-02T10:10:55.678Z,4.70
2024-02-02T10:13:35.324Z,4.50
2024-02-02T10:16:19.125Z,4.60
2024-02-02T10:19:27.551Z,4.82
2024-02-02T10:22:08.108Z,5.23
2024-02-02T10:24:48.813Z,5.30
2024-02-02T10:27:31.271Z,4.82
2024-02-02T10:30:07.063Z,6.25
2024-02-02T10:32:59.493Z,5.53
2024-02-02T10:35:33.598Z,4.50
2024-02-02T10:38:14.199Z,5.67
2024-02-02T10:40:44.491Z,4.97
2024-02-02T10:43:30.093Z,4.95
2024-02-02T10:46:13.378Z,4.65
2024-02-02T10:48:56.844Z,5.75
2024-02-02T10:51:30.643Z,5.45
2024-02-02T10:54:06.336Z,4.80
2024-02-02T10:56:40.216Z,5.93
2024-02-02T10:59:16.530Z,5.53
2024-02-02T11:01:51.834Z,4.78
2024-02-02T11:04:30.037Z,5.80
2024-02-02T11:07:04.864Z,5.53
2024-02-02T11:09:36.967Z,5.18
2024-02-02T11:12:12.080Z,5.13
2024-02-02T11:14:45.278Z,5.00
2024-02-02T11:17:18.996Z,5.07
2024-02-02T11:20:09.658Z,5.10
2024-02-02T11:22:42.126Z,5.40
2024-02-02T11:25:17.069Z,5.25
2024-02-02T11:27:51.111Z,5.20
2024-02-02T11:30:32.323Z,5.88
2024-02-02T11:33:21.330Z,5.30
2024-02-02T11:36:00.599Z,5.90
2024-02-02T11:38:39.771Z,5.95
2024-02-02T11:41:13.594Z,5.18
2024-02-02T11:43:42.464Z,4.95
2024-02-02T11:46:12.427Z,5.57
2024-02-02T11:48:41.883Z,5.63
2024-02-02T11:51:11.977Z,5.40
2024-02-02T11:53:43.150Z,6.10
2024-02-02T11:56:13.171Z,5.07
2024-02-02T11:58:44.290Z,4.88
2024-02-02T12:01:34.012Z,4.70
2024-02-02T12:04:23.567Z,5.18
2024-02-02T12:07:12.545Z,5.57
2024-02-02T12:09:45.005Z,5.07
2024-02-02T12:12:17.242Z,5.30
2024-02-02T12:14:50.254Z,4.70
2024-02-02T12:17:20.007Z,4.50
2024-02-02T12:19:48.452Z,5.25
2024-02-02T12:22:16.773Z,4.55
2024-02-02T12:24:45.056Z,4.77
2024-02-02T12:27:13.354Z,5.00
2024-02-02T12:29:41.779Z,5.13
2024-02-02T12:32:12.678Z,4.75
2024-02-02T12:34:42.959Z,4.78
2024-02-02T12:37:11.477Z,5.03
2024-02-02T12:39:39.803Z,4.82
2024-02-02T12:42:08.562Z,5.27
2024-02-02T12:44:36.883Z,4.60
2024-02-02T12:47:07.906Z,4.95
2024-02-02T12:49:38.357Z,5.22
2024-02-02T12:52:08.497Z,5.57
2024-02-02T12:54:37.022Z,5.25
2024-02-02T12:57:06.376Z,5.22
2024-02-02T12:59:34.660Z,5.32
2024-02-02T13:02:02.881Z,5.32
2024-02-02T13:04:32.285Z,5.00
2024-02-02T13:07:01.292Z,4.78
2024-02-02T13:09:33.792Z,4.82
2024-02-02T13:12:02.997Z,5.80
2024-02-02T13:14:33.668Z,5.25
2024-02-02T13:17:07.371Z,5.10
2024-02-02T13:19:39.779Z,4.63
2024-02-02T13:22:19.015Z,5.22
2024-02-02T13:24:50.537Z,5.13
2024-02-02T13:27:20.037Z,5.00
2024-02-02T13:29:50.291Z,5.80
2024-02-02T13:32:19.343Z,4.80
2024-02-02T13:34:47.670Z,5.00
2024-02-02T13:37:30.432Z,5.45
2024-02-02T13:40:03.071Z,4.93
2024-02-02T13:42:36.562Z,5.07
2024-02-02T13:45:16.626Z,4.50
2024-02-02T13:47:46.000Z,5.30
2024-02-02T13:50:20.492Z,5.20
2024-02-02T13:52:51.227Z,4.50
2024-02-02T13:55:21.963Z,5.25
2024-02-02T13:57:50.585Z,5.30
2024-02-02T14:00:20.484Z,5.15
2024-02-02T14:02:48.845Z,4.97
2024-02-02T14:05:17.247Z,5.13
2024-02-02T14:07:56.212Z,5.63
2024-02-02T14:10:28.657Z,5.32
2024-02-02T14:12:56.892Z,5.70
2024-02-02T14:15:25.144Z,4.87
2024-02-02T14:18:01.893Z,4.85
2024-02-02T14:20:30.291Z,5.10
2024-02-02T14:22:58.521Z,4.97
2024-02-02T14:25:30.002Z,5.45
2024-02-02T14:27:58.170Z,4.80
2024-02-02T14:30:26.443Z,5.22
2024-02-02T14:33:08.481Z,4.70
2024-02-02T14:35:42.821Z,4.97
2024-02-02T14:38:13.971Z,5.32
2024-02-02T14:40:44.056Z,5.33
2024-02-02T14:43:12.336Z,6.15
2024-02-02T14:45:41.530Z,5.13
2024-02-02T14:48:10.536Z,4.93
2024-02-02T14:50:39.950Z,5.55
2024-02-02T14:53:08.179Z,5.70
2024-02-02T14:55:36.358Z,5.43
2024-02-02T14:58:06.587Z,5.38
2024-02-02T15:00:42.085Z,5.63
2024-02-02T15:03:10.379Z,5.85
2024-02-02T15:05:38.633Z,5.50
2024-02-02T15:08:07.891Z,4.88
2024-02-02T15:10:36.189Z,5.70
2024-02-02T15:13:06.489Z,5.65
2024-02-02T15:15:34.730Z,4.88
2024-02-02T15:18:03.041Z,5.50
2024-02-02T15:20:31.296Z,4.93
2024-02-02T15:22:59.527Z,4.72
2024-02-02T15:25:27.732Z,5.17
2024-02-02T15:27:56.043Z,4.68
2024-02-02T15:30:25.777Z,5.20
2024-02-02T15:32:54.033Z,4.82
2024-02-02T15:35:22.429Z,4.82
2024-02-02T15:37:50.688Z,4.60
2024-02-02T15:40:21.659Z,5.25
2024-02-02T15:42:51.902Z,5.38
2024-02-02T15:45:20.374Z,5.35
2024-02-02T15:47:52.040Z,5.13
2024-02-02T15:50:20.625Z,5.43
2024-02-02T15:52:48.943Z,5.13
2024-02-02T15:55:17.207Z,5.53
2024-02-02T15:57:50.211Z,6.07
2024-02-02T16:00:19.383Z,6.60
2024-02-02T16:02:49.575Z,7.00
2024-02-02T16:05:18.582Z,7.15
2024-02-02T16:07:47.074Z,7.60
2024-02-02T16:10:18.748Z,7.30
2024-02-02T16:12:47.072Z,7.28
2024-02-02T16:15:16.895Z,6.97
2024-02-02T16:17:45.365Z,7.20
2024-02-02T16:20:16.106Z,6.72
2024-02-02T16:22:44.320Z,7.03
2024-02-02T16:25:15.605Z,7.25
2024-02-02T16:27:44.296Z,7.20
2024-02-02T16:30:15.270Z,7.97
2024-02-02T16:32:43.628Z,6.70
2024-02-02T16:35:15.534Z,7.13
2024-02-02T16:37:44.107Z,7.22
2024-02-02T16:40:13.044Z,7.43
2024-02-02T16:42:41.901Z,8.02
2024-02-02T16:45:11.277Z,7.85
2024-02-02T16:47:39.678Z,8.18
2024-02-02T16:50:11.992Z,8.55
2024-02-02T16:52:43.428Z,9.02
2024-02-02T16:55:13.759Z,8.88
2024-02-02T16:57:42.008Z,8.93
2024-02-02T17:00:12.380Z,8.77
2024-02-02T17:02:40.804Z,8.68
2024-02-02T17:05:09.388Z,9.63
2024-02-02T17:07:37.645Z,9.68
2024-02-02T17:10:11.067Z,9.63
2024-02-02T17:12:39.417Z,9.13
2024-02-02T17:15:10.747Z,9.93
2024-02-02T17:17:41.797Z,10.35
2024-02-02T17:20:12.392Z,9.90
2024-02-02T17:22:44.410Z,9.90
2024-02-02T17:25:15.687Z,9.98
2024-02-02T17:27:44.154Z,10.07
2024-02-02T17:30:22.141Z,10.15
2024-02-02T17:32:50.512Z,9.38
2024-02-02T17:35:19.074Z,9.65
2024-02-02T17:37:47.338Z,9.35
2024-02-02T17:40:17.245Z,8.50
2024-02-02T17:42:45.978Z,9.18
2024-02-02T17:45:15.776Z,9.40
2024-02-02T17:47:44.018Z,8.93
2024-02-02T17:50:17.494Z,9.20
2024-02-02T17:52:45.890Z,9.00
2024-02-02T17:55:16.114Z,8.50
2024-02-02T17:57:44.363Z,8.70
2024-02-02T18:00:21.024Z,7.75
2024-02-02T18:02:49.358Z,8.18
2024-02-02T18:05:17.978Z,8.40
2024-02-02T18:07:48.200Z,8.35
2024-02-02T18:10:18.370Z,8.55
2024-02-02T18:12:49.801Z,8.02
2024-02-02T18:15:18.493Z,8.55
2024-02-02T18:17:46.914Z,8.75
2024-02-02T18:20:16.338Z,9.63
2024-02-02T18:22:44.594Z,9.88
2024-02-02T18:25:13.043Z,9.90
2024-02-02T18:27:42.688Z,9.77
2024-02-02T18:30:14.048Z,9.93
2024-02-02T18:32:42.831Z,10.60
2024-02-02T18:35:13.319Z,10.45
2024-02-02T18:37:41.501Z,10.27
2024-02-02T18:40:11.317Z,10.63
2024-02-02T18:42:40.240Z,10.50
2024-02-02T18:45:16.055Z,10.38
2024-02-02T18:47:44.361Z,11.83
2024-02-02T18:50:13.062Z,10.05
2024-02-02T18:52:41.257Z,11.38
2024-02-02T18:55:10.241Z,12.00
2024-02-02T18:57:38.500Z,11.75
2024-02-02T19:00:07.717Z,12.10
2024-02-02T19:02:37.431Z,12.10
2024-02-02T19:05:06.615Z,12.27
2024-02-02T19:07:35.037Z,11.07
2024-02-02T19:10:03.218Z,11.50
2024-02-02T19:12:31.989Z,12.40
2024-02-02T19:15:00.529Z,11.63
2024-02-02T19:17:28.867Z,11.82
2024-02-02T19:19:58.638Z,11.07
2024-02-02T19:22:26.842Z,11.07
2024-02-02T19:24:55.217Z,12.20
2024-02-02T19:27:23.518Z,11.63
2024-02-02T19:29:51.837Z,11.65
2024-02-02T19:32:20.021Z,10.73
2024-02-02T19:34:48.399Z,11.23
2024-02-02T19:37:18.034Z,10.65
2024-02-02T19:39:47.238Z,11.57
2024-02-02T19:42:15.594Z,10.30
2024-02-02T19:44:44.142Z,11.38
2024-02-02T19:47:14.252Z,10.45
2024-02-02T19:49:42.605Z,11.68
2024-02-02T19:52:10.940Z,11.97
2024-02-02T19:54:40.588Z,11.60
2024-02-02T19:57:08.860Z,11.50
2024-02-02T19:59:37.216Z,13.10
2024-02-02T20:02:05.772Z,11.05
2024-02-02T20:04:34.064Z,12.52
2024-02-02T20:07:02.498Z,12.93
2024-02-02T20:09:30.850Z,17.52
2024-02-02T20:12:00.485Z,12.77
2024-02-02T20:14:28.719Z,13.63
2024-02-02T20:16:56.878Z,12.57
2024-02-02T20:19:26.292Z,13.15
2024-02-02T20:21:54.671Z,11.75
2024-02-02T20:24:22.892Z,11.82
2024-02-02T20:26:51.047Z,11.05
2024-02-02T20:29:20.689Z,12.15
2024-02-02T20:31:51.510Z,12.32
2024-02-02T20:34:19.816Z,11.65
2024-02-02T20:36:48.126Z,10.82
2024-02-02T20:39:16.419Z,11.68
2024-02-02T20:41:45.223Z,11.52
2024-02-02T20:44:13.446Z,9.57
2024-02-02T20:46:44.651Z,9.40
2024-02-02T20:49:15.780Z,8.93
2024-02-02T20:51:44.408Z,9.13
2024-02-02T20:54:14.122Z,9.73
2024-02-02T20:56:42.907Z,8.95
2024-02-02T20:59:11.304Z,9.60
2024-02-02T21:01:39.569Z,9.50
2024-02-02T21:04:09.274Z,9.10
2024-02-02T21:06:43.877Z,9.30
2024-02-02T21:09:12.591Z,8.38
2024-02-02T21:11:41.186Z,7.97
2024-02-02T21:14:09.518Z,7.95
2024-02-02T21:16:38.328Z,7.78
2024-02-02T21:19:09.592Z,7.90
2024-02-02T21:21:38.101Z,7.07
2024-02-02T21:24:07.082Z,7.18
2024-02-02T21:26:35.400Z,6.35
2024-02-02T21:29:03.822Z,5.90
2024-02-02T21:31:32.320Z,5.70
2024-02-02T21:34:00.843Z,5.10
2024-02-02T21:36:30.601Z,5.32
2024-02-02T21:38:59.152Z,4.85
2024-02-02T21:41:27.687Z,4.75
2024-02-02T21:43:56.054Z,4.47
2024-02-02T21:46:24.825Z,4.57
2024-02-02T21:48:53.289Z,4.40
2024-02-02T21:51:21.899Z,4.53
2024-02-02T21:53:51.757Z,4.30
2024-02-02T21:56:20.128Z,4.47
2024-02-02T21:58:48.426Z,4.90
2024-02-02T22:01:16.869Z,4.00
2024-02-02T22:03:45.253Z,4.72
2024-02-02T22:06:15.285Z,5.57
2024-02-02T22:08:43.644Z,4.15
2024-02-02T22:11:14.469Z,4.25
2024-02-02T22:13:43.275Z,4.38
2024-02-02T22:16:12.177Z,5.03
2024-02-02T22:18:40.667Z,3.60
2024-02-02T22:21:09.869Z,3.83
2024-02-02T22:23:38.481Z,3.78
2024-02-02T22:26:07.142Z,3.45
2024-02-02T22:28:37.510Z,3.85
2024-02-02T22:31:06.178Z,3.88
2024-02-02T22:33:34.834Z,3.33
2024-02-02T22:36:03.177Z,3.15
2024-02-02T22:38:31.509Z,3.30
2024-02-02T22:41:04.890Z,3.47
2024-02-02T22:43:39.580Z,3.83
2024-02-02T22:46:07.776Z,3.45
2024-02-02T22:48:35.984Z,4.22
2024-02-02T22:51:04.369Z,5.28
2024-02-02T22:53:32.604Z,6.43
2024-02-02T22:56:00.849Z,9.82
2024-02-02T22:58:29.076Z,11.30
2024-02-02T23:01:36.253Z,14.15
2024-02-02T23:04:35.226Z,11.07
2024-02-02T23:07:09.238Z,7.75
2024-02-02T23:09:37.724Z,5.53
2024-02-02T23:12:06.814Z,4.70
2024-02-02T23:14:35.008Z,3.65
2024-02-02T23:17:04.850Z,3.10
2024-02-02T23:19:35.303Z,3.55
2024-02-02T23:22:05.478Z,4.10
2024-02-02T23:24:33.669Z,3.90
2024-02-02T23:27:02.061Z,3.60
2024-02-02T23:29:30.265Z,3.63
2024-02-02T23:31:58.464Z,3.20
2024-02-02T23:34:28.150Z,3.60
2024-02-02T23:36:57.152Z,3.33
2024-02-02T23:39:25.430Z,3.15
2024-02-02T23:41:53.597Z,3.00
2024-02-02T23:44:21.753Z,2.80
2024-02-02T23:46:49.927Z,3.05
2024-02-02T23:49:18.923Z,3.22
2024-02-02T23:51:48.665Z,3.15
2024-02-02T23:54:16.960Z,3.33
2024-02-02T23:56:45.121Z,2.97
2024-02-02T23:59:13.504Z,3.42
